Weather observations for the past three days for
Baraboo Wisconsin Dells Airport
Metric (Imperial)
Date Time (cdt) Wind (kph) Vis. (km) Weather Sky Cond. Temperature (ºC) Relative Humidity Wind Chill (°C) Heat Index (°C) Pressure Precipitation (cm)
Air Dwpt 6 hour altimeter (cm) sea level (mb) 1 hr 3 hr 6 hr
Max. Min.
05 14:35 NW 20 G 33 16.09 Fair CLR 12.1 -6.1 28% 75.69 0.0
05 14:15 W 28 G 33 16.09 Partly Cloudy SCT070 12.5 -6.4 26% 75.72 0.0
05 13:55 W 24 G 35 16.09 Mostly Cloudy BKN070 11.9 -5.6 29% 75.69 0.0
05 13:35 W 26 G 39 16.09 Mostly Cloudy BKN070 12.1 -5.2 30% 75.69 0.0
05 13:15 W 24 G 35 16.09 Partly Cloudy SCT070 11.5 -6.3 28% 75.69 0.0
05 12:55 W 24 G 37 16.09 Partly Cloudy SCT070 11 -6.2 11.5 5.7 30% 75.69 0.0
05 12:35 NW 22 G 31 16.09 Fair CLR 11 -6.7 29% 75.69 0.0
05 12:15 W 22 G 35 16.09 Fair CLR 11 -6.1 30% 75.69 0.0
05 11:55 NW 28 G 35 16.09 Fair CLR 10.6 -6.8 29% 75.69 0.0
05 11:30 NW 15 G 35 16.09 Partly Cloudy SCT070 10.4 -6.4 30% 75.69 0.0
05 11:15 W 22 G 41 16.09 Partly Cloudy SCT070 10.4 -6.3 31% 75.69 0.0
05 10:55 W 22 G 39 16.09 Fair CLR 10 -5.9 32% 7 75.67 0.0
05 10:15 W 28 G 37 16.09 Partly Cloudy SCT060 9.2 -5.9 34% 6 75.64 0.0
05 09:55 W 13 G 31 16.09 Fair CLR 9.3 -4.5 38% 8 75.67 0.0
05 09:35 W 19 G 28 16.09 Fair CLR 8.8 -3.7 41% 6 75.67 0.0
05 09:15 W 19 G 28 16.09 Fair CLR 8.1 -3.4 44% 5 75.67 0.0
05 08:55 W 20 G 28 16.09 Fair CLR 8.2 -2.8 46% 5 75.67 0.0
05 08:35 W 19 G 30 16.09 Fair CLR 7.6 -3 47% 5 75.69 0.0
05 08:15 NW 11 16.09 Fair CLR 7.1 -3 49% 5 75.69 0.0
05 07:55 W 17 16.09 Fair CLR 6.7 -3.2 50% 4 75.67 0.0
05 07:35 W 15 16.09 Fair CLR 6.8 -3 50% 4 75.67 0.0
05 07:15 W 11 16.09 Fair CLR 6.5 -2.6 53% 5 75.64 0.0
05 06:55 W 9 16.09 Fair CLR 5.7 -2.8 9.5 4.6 55% 4 75.59 0.0
05 06:35 W 7 16.09 Fair CLR 5.1 -3.1 56% 4 75.54 0.0
05 06:15 W 6 16.09 Fair CLR 4.7 -3.4 56% 75.51 0.0
05 05:55 W 7 16.09 Fair CLR 4.6 -3.5 56% 3 75.54 0.0
05 05:35 W 9 16.09 Fair CLR 5.1 -3.5 54% 3 75.54 0.0
05 05:15 W 6 16.09 Fair CLR 5 -3.4 55% 75.51 0.0
05 04:55 SW 6 16.09 Fair CLR 5.4 -3.2 54% 75.49 0.0
05 04:35 W 6 16.09 Fair CLR 5.6 -2.9 55% 75.49 0.0
05 04:15 SW 6 16.09 Fair CLR 5.6 -2.6 56% 75.49 0.0
05 03:55 W 7 16.09 Fair CLR 6 -2.7 54% 5 75.46 0.0
05 03:35 W 7 16.09 Fair CLR 6.5 -2.9 51% 5 75.44 0.0
05 03:15 W 9 16.09 Fair CLR 6.6 -2.9 51% 5 75.41 0.0
05 02:55 W 9 16.09 Fair CLR 6.9 -3 50% 5 75.41 0.0
05 02:35 NW 13 16.09 Fair CLR 7.5 -3 48% 5 75.39 0.0
05 02:15 NW 9 16.09 Fair CLR 7.8 -3.3 46% 6 75.36 0.0
05 01:55 NW 15 G 26 16.09 Fair CLR 8.2 -3.6 43% 6 75.36 0.0
05 01:35 NW 13 16.09 Fair CLR 8.6 -3.2 44% 7 75.36 0.0
05 01:15 NW 20 G 33 16.09 Fair CLR 9.2 -3.4 41% 7 75.36 0.0
05 00:35 NW 20 G 33 16.09 Fair CLR 9.9 -3.4 39% 7 75.34 0.0
05 00:15 NW 19 G 35 16.09 Fair CLR 10.1 -2.6 41% 75.31 0.0
04 23:55 NW 13 G 28 16.09 Fair CLR 10.5 -2 42% 75.29 0.0
04 23:15 NW 19 G 37 16.09 Fair CLR 11.5 -1 42% 75.23 0.0
04 22:55 NW 17 G 31 16.09 Fair CLR 12 -0.2 43% 75.21 0.0
04 22:35 NW 22 G 31 16.09 Fair CLR 12.5 -0.3 42% 75.18 0.0
04 22:15 W 17 G 28 16.09 Fair CLR 13.1 -0.6 39% 75.16 0.0
04 21:55 W 19 G 26 16.09 Fair CLR 13.2 -0.5 39% 75.11 0.0
04 21:35 W 15 16.09 Fair CLR 13.4 -0.6 38% 75.08 0.0
04 21:15 W 19 G 33 16.09 Fair CLR 13.9 -1 36% 75.03 0.0
04 20:55 W 19 G 31 16.09 Partly Cloudy SCT110 14.7 -2.2 31% 75.01 0.0
04 20:35 NW 22 G 37 16.09 Partly Cloudy SCT110 15.2 -3.1 28% 74.98 0.0
04 20:15 W 28 G 39 16.09 Mostly Cloudy SCT095 BKN120 15.9 -3.5 26% 74.96 0.0
04 19:55 W 22 G 33 16.09 Partly Cloudy SCT120 16.2 -2.5 28% 74.96 0.0
04 19:30 W 26 G 37 16.09 Partly Cloudy SCT120 16.6 -0.7 31% 74.93 0.0
04 19:15 W 20 G 26 16.09 Partly Cloudy SCT120 17 0 32% 74.93 0.0
04 18:55 W 24 G 46 16.09 Overcast OVC120 17.6 -0.3 25.3 17.6 30% 74.9 0.0
04 18:35 W 26 G 48 16.09 Mostly Cloudy BKN120 18.4 -0.6 28% 74.88 0.0
04 18:15 W 22 G 37 16.09 Partly Cloudy SCT120 19.1 0 28% 74.85 0.0
04 17:55 NW 28 G 41 16.09 Fair CLR 20.6 1.5 28% 74.83 0.0
04 17:35 W 31 G 41 16.09 Fair CLR 22.1 2.4 27% 74.8 0.0
04 17:15 W 28 G 37 16.09 Fair CLR 22.6 3 28% 74.78 0.0
04 16:55 W 33 G 44 16.09 Fair and Breezy CLR 22.3 3.4 29% 74.78 0.0
04 16:35 NW 26 G 44 16.09 Fair CLR 22.5 3.3 29% 74.75 0.0
04 16:15 NW 26 G 41 16.09 Partly Cloudy SCT095 23.6 5.3 31% 74.73 0.0
04 15:55 W 41 G 54 16.09 Partly Cloudy and Breezy SCT095 25 4.9 27% 25 74.7 0.0
04 15:35 W 24 G 43 16.09 Partly Cloudy SCT095 25 5.3 28% 25 74.7 0.0
04 14:55 W 28 G 46 16.09 Mostly Cloudy BKN095 BKN120 24 4.4 28% 25 74.73 0.0
04 14:35 W 33 G 50 16.09 Mostly Cloudy and Breezy BKN095 BKN110 24.5 4.6 28% 25 74.73 0.0
04 14:15 W 30 G 39 16.09 Partly Cloudy SCT095 25.2 5.2 28% 25 74.73 0.0
04 13:55 SW 33 G 46 16.09 Mostly Cloudy and Breezy BKN095 24.3 4.5 28% 25 74.73 0.0
04 13:35 SW 35 G 50 16.09 Mostly Cloudy and Breezy BKN095 24.3 4.7 28% 25 74.75 0.0
04 13:15 SW 31 G 48 16.09 Partly Cloudy SCT085 SCT110 25.1 5.2 28% 25 74.75 0.0
04 12:55 W 28 G 48 16.09 Partly Cloudy SCT085 24.9 4.9 25.1 12.6 28% 25 74.75 0.0
04 12:35 SW 28 G 39 16.09 Mostly Cloudy BKN085 24 4.4 28% 25 74.75 0.0
04 12:15 SW 33 G 46 16.09 Partly Cloudy and Breezy SCT085 24.4 4.3 27% 25 74.78 0.0
04 11:55 SW 26 G 44 16.09 Fair CLR 23.8 4.1 28% 74.8 0.0
04 11:35 SW 33 G 46 16.09 Partly Cloudy and Breezy SCT100 23.1 3.5 28% 74.8 0.0
04 11:15 SW 33 G 50 16.09 Fair and Breezy CLR 23 3.4 28% 74.8 0.0
04 10:55 SW 33 G 46 16.09 Fair and Breezy CLR 22.5 3.1 28% 74.83 0.0
04 10:35 SW 35 G 46 16.09 Fair and Breezy CLR 21.8 2.8 29% 74.83 0.0
04 10:15 SW 28 G 44 16.09 Fair CLR 21.1 3 30% 74.85 0.0
04 09:55 SW 24 G 37 16.09 Fair CLR 20.7 3.4 32% 74.88 0.0
04 09:35 SW 30 G 39 16.09 Fair CLR 19.3 2.9 34% 74.9 0.0
04 09:15 SW 24 G 33 16.09 Fair CLR 18.1 2.9 36% 74.93 0.0
04 08:55 SW 26 G 43 16.09 Fair CLR 17.2 2.4 37% 74.96 0.0
04 08:35 SW 31 G 41 16.09 Fair CLR 16.5 2.1 38% 74.96 0.0
04 08:15 SW 22 16.09 Fair CLR 15.8 2.4 41% 74.98 0.0
04 07:55 SW 24 G 31 16.09 Fair CLR 15.1 1.9 41% 74.98 0.0
04 07:35 SW 22 16.09 Fair CLR 14.1 1.5 43% 74.98 0.0
04 07:15 SW 24 16.09 Fair CLR 13.4 1.4 44% 75.01 0.0
04 06:55 SW 20 16.09 Fair CLR 12.6 1.3 12.6 6.6 46% 75.03 0.0
04 06:35 SW 17 16.09 Fair CLR 12 1.4 49% 75.03 0.0
04 06:15 SW 17 16.09 Fair CLR 11.3 1.2 50% 75.03 0.0
04 05:55 SW 19 16.09 Fair CLR 11.1 1.2 51% 75.03 0.0
04 05:35 SW 15 16.09 Fair CLR 11 1.3 52% 75.06 0.0
04 05:15 SW 15 16.09 Fair CLR 9.1 1.7 60% 7 75.06 0.0
04 04:55 SW 9 16.09 Fair CLR 9.6 1.6 58% 9 75.08 0.0
04 04:35 SW 6 16.09 Fair CLR 7.3 1.7 68% 75.11 0.0
04 04:15 Calm 16.09 Fair CLR 8.1 1.7 64% 75.11 0.0
04 03:55 SW 6 16.09 Fair CLR 8.2 1.6 63% 75.13 0.0
04 03:35 Calm 16.09 Fair CLR 8.1 2 66% 75.13 0.0
04 03:15 SW 6 16.09 Fair CLR 7.8 2.1 68% 75.16 0.0
04 02:55 Calm 16.09 Fair CLR 8.4 1.7 63% 75.18 0.0
04 02:35 Calm 16.09 Fair CLR 9.5 1.6 58% 75.21 0.0
04 02:15 Calm 16.09 Fair CLR 10.7 1.6 54% 75.21 0.0
04 01:55 SW 6 16.09 Fair CLR 10.9 1.7 53% 75.23 0.0
04 01:35 SW 6 16.09 Fair CLR 10 2 58% 75.26 0.0
04 01:15 SW 7 16.09 Fair CLR 10.6 1.7 54% 75.29 0.0
04 00:55 SW 6 16.09 Fair CLR 11 1.7 20.7 10.9 53% 75.29 0.0
04 00:35 SW 6 16.09 Fair CLR 12.7 1.5 47% 75.31 0.0
04 00:15 SW 6 16.09 Fair CLR 11.8 1.6 50% 75.31 0.0
03 23:55 SW 7 16.09 Fair CLR 12 1.5 49% 75.31 0.0
03 23:35 SW 6 16.09 Fair CLR 13.4 1.2 44% 75.31 0.0
03 23:15 SW 6 16.09 Fair CLR 12.8 1.7 47% 75.31 0.0
03 22:55 SW 6 16.09 Fair CLR 11 2.1 55% 75.36 0.0
03 22:35 W 6 16.09 Fair CLR 14.6 1.1 40% 75.36 0.0
03 22:15 W 6 16.09 Fair CLR 15.5 1.1 38% 75.36 0.0
03 21:55 W 6 16.09 Fair CLR 16.1 1.3 37% 75.36 0.0
03 21:35 W 6 16.09 Fair CLR 16.2 1.5 37% 75.36 0.0
03 21:15 W 6 16.09 Fair CLR 16.6 1.5 36% 75.36 0.0
03 20:55 W 7 16.09 Fair CLR 16.7 1.5 36% 75.31 0.0
03 20:35 W 6 16.09 Fair CLR 17.2 1.1 34% 75.31 0.0
03 20:15 W 7 16.09 Fair CLR 17.9 1 32% 75.31 0.0
03 19:55 W 11 16.09 Fair CLR 19.1 0.6 29% 75.29 0.0
03 19:35 W 15 16.09 Fair CLR 19.6 1.4 30% 75.29 0.0
03 19:15 W 13 16.09 Fair CLR 20.5 1.5 28% 75.29 0.0
03 18:55 W 17 16.09 Fair CLR 20.8 2.4 21.6 17.8 30% 75.26 0.0
03 18:35 NW 15 16.09 Fair CLR 21 2.6 30% 75.26 0.0
03 18:15 W 15 16.09 Fair CLR 21.2 2.8 30% 75.26 0.0
03 17:55 W 17 G 28 16.09 Fair CLR 21.3 2.3 29% 75.26 0.0
03 17:35 W 22 G 31 16.09 Fair CLR 21.5 2.8 29% 75.26 0.0
03 17:15 NW 15 16.09 Partly Cloudy SCT075 21 3.3 31% 75.29 0.0
03 16:55 SW 20 G 28 16.09 Partly Cloudy SCT075 21.2 4 32% 75.29 0.0
03 16:35 W 19 G 31 16.09 Fair CLR 20.8 4.1 34% 75.29 0.0
03 16:15 W 15 G 44 16.09 Fair CLR 20.9 4.6 34% 75.29 0.0
03 15:55 SW 20 16.09 Fair CLR 20.3 4.7 36% 75.31 0.0
03 15:35 SW 22 G 31 16.09 Fair CLR 20.2 4.3 35% 75.31 0.0
03 15:15 W 15 16.09 Fair CLR 19.9 4.4 36% 75.34 0.0
03 14:55 SW 24 16.09 Fair CLR 19.6 4.3 37% 75.36 0.0
03 14:35 W 22 G 33 16.09 Fair CLR 18.9 4.1 38% 75.39 0.0
03 14:15 SW 19 G 33 16.09 Fair CLR 18.8 4.1 38% 75.39 0.0
03 13:55 SW 20 G 37 16.09 Fair CLR 18 3.5 38% 75.41 0.0
03 13:35 SW 24 G 35 16.09 Fair CLR 18.4 3.8 38% 75.41 0.0
03 13:15 SW 22 G 31 16.09 Fair CLR 18 3.5 38% 75.44 0.0
03 12:55 SW 19 G 33 16.09 Fair CLR 18 3.8 18 11 39% 75.44 0.0
03 12:35 SW 22 16.09 Fair CLR 17.5 3.6 40% 75.46 0.0
03 12:15 SW 30 G 37 16.09 Fair CLR 17 3.5 41% 75.49 0.0
03 11:55 SW 30 G 39 16.09 Fair CLR 16.3 3 41% 75.49 0.0
03 11:35 SW 26 G 41 16.09 Fair CLR 16.7 3.2 41% 75.49 0.0
03 11:15 SW 31 G 44 16.09 Fair CLR 16.2 3.2 42% 75.51 0.0
03 10:55 SW 30 G 44 16.09 Fair CLR 16 3.6 44% 75.54 0.0
03 10:35 S 33 G 48 16.09 Fair and Breezy CLR 15.5 3.6 45% 75.54 0.0
03 10:15 S 35 G 43 16.09 Fair and Breezy CLR 15.2 3.9 47% 75.57 0.0
03 09:55 SW 28 G 39 16.09 Partly Cloudy SCT120 15.3 3.5 45% 75.59 0.0
03 09:35 SW 37 G 44 16.09 Partly Cloudy and Breezy SCT085 15 3.6 47% 75.62 0.0
03 09:15 S 24 G 37 16.09 Mostly Cloudy BKN085 14.3 4.1 51% 75.62 0.0
03 08:55 S 26 G 37 16.09 Mostly Cloudy BKN095 13.5 4.2 54% 75.64 0.0
03 08:35 S 26 G 44 16.09 Mostly Cloudy BKN095 13.3 3.5 52% 75.64 0.0
03 08:15 S 30 G 46 16.09 Partly Cloudy SCT095 12.7 3.2 53% 75.64 0.0
03 07:55 SW 33 G 43 16.09 Partly Cloudy and Breezy SCT095 11.6 3.1 56% 75.67 0.0
03 07:35 SW 28 G 39 16.09 Overcast OVC095 11.6 2.7 55% 75.67 0.0
03 07:15 SW 28 G 37 16.09 Overcast SCT095 OVC120 11.6 2.5 54% 75.69 0.0
03 06:55 SW 24 G 35 16.09 Overcast SCT085 OVC120 11 1.7 11 10 53% 75.69 0.0
03 06:35 SW 20 G 33 16.09 Light Drizzle SCT050 BKN070 OVC095 10.6 1.3 53% 75.72 0.0
03 06:15 SW 15 16.09 Overcast SCT055 BKN070 OVC080 10.1 0.2 51% 75.72 0.0
03 05:55 SW 15 16.09 Overcast SCT080 OVC090 10 -0.1 50% 8 75.72 0.0
03 05:35 SW 19 16.09 Overcast OVC090 10.3 -0.5 47% 75.74 0.0
03 05:15 SW 24 G 31 16.09 Overcast OVC090 10.3 -0.6 47% 75.72 0.0
03 04:35 SW 15 16.09 Overcast OVC100 10.2 -0.8 47% 75.74 0.0
03 04:15 SW 15 G 26 16.09 Overcast OVC100 10.3 -1 46% 75.79 0.0
03 03:55 SW 20 G 30 16.09 Overcast OVC100 10.5 -1.1 45% 75.79 0.0
03 03:35 SW 19 G 30 16.09 Overcast BKN100 OVC120 10.6 -1.3 44% 75.79 0.0
03 03:15 SW 17 G 28 16.09 Overcast OVC120 10.6 -1.4 44% 75.79 0.0
03 02:55 SW 19 G 28 16.09 Overcast OVC110 10.5 -1.6 43% 75.82 0.0
03 02:35 SW 19 G 28 16.09 Overcast OVC110 10.5 -1.9 42% 75.82 0.0
03 02:15 SW 17 G 28 16.09 Mostly Cloudy BKN110 10.5 -2 42% 75.84 0.0
03 01:55 SW 20 G 30 16.09 Mostly Cloudy BKN110 10.4 -2.2 42% 75.84 0.0
03 01:35 SW 20 16.09 Partly Cloudy SCT120 10.3 -2.3 42% 75.87 0.0
03 01:15 SW 17 16.09 Partly Cloudy SCT090 10.1 -2.5 42% 75.87 0.0
03 00:55 SW 19 G 28 16.09 Partly Cloudy SCT100 10.3 -2.6 14.4 9 41% 75.9 0.0
03 00:35 SW 15 16.09 Overcast OVC100 10.8 -2.6 39% 75.9 0.0
03 00:15 SW 19 G 26 16.09 Overcast OVC100 11 -2.4 39% 75.9 0.0
02 23:55 SW 17 G 26 16.09 Overcast OVC100 11 -2.5 39% 75.9 0.0
02 23:35 SW 17 16.09 Overcast OVC100 11 -2.4 39% 75.92 0.0
02 23:15 SW 15 16.09 Overcast OVC100 11.1 -2.3 39% 75.95 0.0
02 22:55 SW 13 16.09 Overcast OVC100 11 -2.1 40% 75.95 0.0
02 22:15 SW 11 16.09 Mostly Cloudy BKN100 10.6 -1.9 42% 76 0.0
02 21:55 SW 11 16.09 Mostly Cloudy BKN100 9.8 -1.8 45% 8 76 0.0
02 21:35 SW 9 16.09 Mostly Cloudy BKN110 9.9 -1.5 45% 9 76 0.0
02 21:15 SW 9 16.09 Partly Cloudy SCT110 9 -1.3 49% 8 76 0.0
02 20:55 SW 6 16.09 Fair CLR 10.4 -2.2 42% 76 0.0
02 20:35 SW 6 16.09 Fair CLR 10.9 -2.1 41% 76 0.0
02 20:15 SW 7 16.09 Fair CLR 10.5 -2 42% 76 0.0
02 19:55 SW 9 16.09 Fair CLR 12 -2.4 37% 76 0.0
02 19:35 SW 9 16.09 Fair CLR 12.8 -2.6 34% 76 0.0
02 19:15 W 15 16.09 Fair CLR 14 -3.1 31% 76 0.0
02 18:55 W 17 G 26 16.09 Fair CLR 14.5 -3 15.3 12.3 30% 76 0.0
02 18:35 W 15 G 28 16.09 Partly Cloudy SCT080 14.6 -3.3 29% 76.02 0.0
02 18:15 W 19 16.09 Partly Cloudy SCT080 14.7 -2.9 30% 76.05 0.0
02 17:55 W 15 16.09 Partly Cloudy SCT080 14.9 -3.2 29% 76.05 0.0
02 17:35 W 20 G 28 16.09 Mostly Cloudy BKN080 15.1 -3.4 28% 76.05 0.0
02 17:15 W 17 G 28 16.09 Mostly Cloudy BKN080 15.3 -3.2 28% 76.07 0.0
02 16:55 W 15 G 28 16.09 Mostly Cloudy BKN080 14.3 -3.5 29% 76.07 0.0
02 16:35 SW 13 G 31 16.09 Mostly Cloudy BKN080 14 -3.1 31% 76.1 0.0
02 16:15 W 19 G 30 16.09 Mostly Cloudy SCT085 BKN090 14.5 -3.3 29% 76.1 0.0
02 15:55 W 19 G 30 16.09 Mostly Cloudy BKN085 13.7 -3.4 31% 76.12 0.0
02 15:35 W 15 16.09 Mostly Cloudy BKN085 14 -3.8 29% 76.15 0.0
02 15:15 W 17 G 30 16.09 Overcast OVC085 14.4 -3.9 28% 76.17 0.0
02 14:55 W 26 16.09 Overcast OVC085 13.6 -3.7 30% 76.2 0.0
Date Time (cdt) Wind (kph) Vis. (km) Weather Sky Cond. Air Dwpt Max. Min. Relative Humidity Wind Chill (°C) Heat Index (°C) altimeter (cm) sea level (mb) 1 hr 3 hr 6 hr
6 hour
Temperature (ºC) Pressure Precipitation (cm)